Terminal Aerodrome Forecast
Issued by NWS

Home | Current Version | Previous Version | Graphics & Text | Print | Product List | Glossary On
Versions: 1 2 3 4 5 6 7 8 9 10 11 12 13 14 15
953
FTUS43 KGRB 181141
TAFCWA
TAF
KCWA 181141Z 1812/1912 35006KT 6SM BR OVC008
      TEMPO 1812/1814 4SM -DZ BKN003
     FM181400 34010G16KT P6SM SCT008 BKN020
      TEMPO 1814/1818 BKN008
     FM181800 33011KT P6SM SCT025 BKN028
     FM190100 31012KT P6SM BKN035=

USA.gov is the U.S. government's official web portal to all federal, state and local government web resources and services.